Time;durP1;ratioP1;P1;durP2;ratioP2;P2;SDS_P1;SDS_P2;PMS_P1;PMS_P2;Temp;Humidity;BMP_temperature;BMP_pressure;BME280_temperature;BME280_humidity;BME280_pressure;Samples;Min_cycle;Max_cycle;Signal;HPM_P1;HPM_P2
2022/07/01 16:10:44;;;;;;;1.20;0.55;;;;;;;;;;6025098;29;20511;-80
2022/07/01 16:17:23;;;;;;;1.48;0.70;;;;;;;;;;6773138;23;20149;-85
2022/07/01 16:24:14;;;;;;;2.13;0.70;;;;;;;;;;6000537;29;20064;-86
2022/07/01 16:27:16;;;;;;;2.45;0.70;;;;;;;;;;5950271;29;20050;-86
2022/07/01 16:30:18;;;;;;;0.60;0.60;;;;;;;;;;5955811;29;20066;-86
2022/07/01 16:33:20;;;;;;;2.08;0.50;;;;;;;;;;6001346;29;20054;-85
2022/07/01 16:36:29;;;;;;;1.40;0.60;;;;;;;;;;5987555;29;20062;-86
2022/07/01 16:39:31;;;;;;;0.52;0.50;;;;;;;;;;5941291;29;20050;-86
2022/07/01 16:42:49;;;;;;;0.82;0.43;;;;;;;;;;5963562;29;20129;-86
2022/07/01 16:45:52;;;;;;;0.77;0.50;;;;;;;;;;5970178;29;20500;-88
2022/07/01 16:49:24;;;;;;;0.43;0.40;;;;;;;;;;6002983;29;20439;-86
2022/07/01 16:52:38;;;;;;;0.60;0.60;;;;;;;;;;5998203;29;20542;-86
2022/07/01 16:55:45;;;;;;;1.98;0.70;;;;;;;;;;5959384;29;20550;-87
2022/07/01 16:58:59;;;;;;;1.88;0.50;;;;;;;;;;5994308;29;20527;-86
2022/07/01 17:02:03;;;;;;;1.63;0.60;;;;;;;;;;6003507;29;20345;-86
2022/07/01 17:05:06;;;;;;;1.83;0.50;;;;;;;;;;6010773;29;20190;-86
2022/07/01 17:08:22;;;;;;;1.05;0.70;;;;;;;;;;6006217;29;20200;-87
2022/07/01 17:11:25;;;;;;;0.50;0.47;;;;;;;;;;6005018;29;20129;-87
2022/07/01 17:14:29;;;;;;;0.52;0.50;;;;;;;;;;5967397;29;20142;-86
2022/07/01 17:17:31;;;;;;;0.82;0.47;;;;;;;;;;6028724;29;20063;-89
2022/07/01 17:20:41;;;;;;;0.90;0.55;;;;;;;;;;6030980;29;20068;-85
2022/07/01 17:23:57;;;;;;;0.45;0.45;;;;;;;;;;5994196;29;20077;-86
2022/07/01 17:27:36;;;;;;;0.75;0.73;;;;;;;;;;6013129;29;20053;-86
2022/07/01 17:30:49;;;;;;;0.70;0.40;;;;;;;;;;5994637;29;20140;-85
2022/07/01 17:33:57;;;;;;;1.65;0.65;;;;;;;;;;5999150;29;20056;-86
2022/07/01 17:37:02;;;;;;;0.50;0.50;;;;;;;;;;6010696;29;20061;-86
2022/07/01 17:40:08;;;;;;;1.25;0.50;;;;;;;;;;5999713;29;20060;-87
2022/07/01 17:43:10;;;;;;;1.80;0.40;;;;;;;;;;5980331;29;20068;-85
2022/07/01 17:46:14;;;;;;;;;;;;;;;;;;6009306;29;20063;-86
2022/07/01 17:49:22;;;;;;;1.13;0.60;;;;;;;;;;5942171;29;19924;-87
2022/07/01 17:52:32;;;;;;;1.02;0.50;;;;;;;;;;6010069;29;20066;-86
2022/07/01 17:55:38;;;;;;;1.08;0.60;;;;;;;;;;6015902;29;20105;-85
2022/07/01 17:58:44;;;;;;;1.30;0.60;;;;;;;;;;5990384;29;20050;-84
2022/07/01 18:01:47;;;;;;;1.23;0.50;;;;;;;;;;5987070;29;20136;-87
2022/07/01 18:04:57;;;;;;;1.20;0.40;;;;;;;;;;5999415;29;20616;-86
2022/07/01 18:08:07;;;;;;;0.75;0.60;;;;;;;;;;5988922;29;20061;-87
2022/07/01 18:11:21;;;;;;;1.70;0.60;;;;;;;;;;5988979;29;20453;-86
2022/07/01 18:14:44;;;;;;;1.23;0.50;;;;;;;;;;5999228;29;20057;-87
2022/07/01 18:17:49;;;;;;;1.80;0.40;;;;;;;;;;6018124;24;20045;-87
2022/07/01 18:21:00;;;;;;;1.08;0.80;;;;;;;;;;6047949;29;20053;-88
2022/07/01 18:24:04;;;;;;;0.50;0.50;;;;;;;;;;6013687;29;20053;-86
2022/07/01 18:27:08;;;;;;;1.05;0.70;;;;;;;;;;6021544;29;20064;-88
2022/07/01 18:30:12;;;;;;;1.77;0.60;;;;;;;;;;6010230;29;20167;-88
2022/07/01 18:33:21;;;;;;;0.80;0.70;;;;;;;;;;6024105;29;20944;-88
2022/07/01 18:36:31;;;;;;;1.00;0.50;;;;;;;;;;6027760;29;20077;-88
2022/07/01 18:39:33;;;;;;;0.88;0.80;;;;;;;;;;6024881;29;20414;-88
2022/07/01 18:42:35;;;;;;;0.93;0.80;;;;;;;;;;6024568;29;20049;-87
2022/07/01 18:45:37;;;;;;;0.90;0.60;;;;;;;;;;6011569;29;20049;-87
2022/07/01 18:48:39;;;;;;;0.70;0.63;;;;;;;;;;6030876;29;20060;-86
2022/07/01 18:51:41;;;;;;;3.97;0.70;;;;;;;;;;5997473;29;20072;-87
2022/07/01 18:54:43;;;;;;;4.28;0.73;;;;;;;;;;6027659;29;20048;-86
2022/07/01 18:57:47;;;;;;;0.70;0.70;;;;;;;;;;6026040;29;20059;-86
2022/07/01 19:00:49;;;;;;;1.60;0.70;;;;;;;;;;6024192;29;20140;-87
2022/07/01 19:03:51;;;;;;;0.90;0.85;;;;;;;;;;6014490;29;20077;-88
2022/07/01 19:06:53;;;;;;;2.83;0.98;;;;;;;;;;6023235;29;20047;-89
2022/07/01 19:09:55;;;;;;;2.13;1.02;;;;;;;;;;6006871;29;20128;-89
2022/07/01 19:12:56;;;;;;;1.10;0.90;;;;;;;;;;6021934;29;20505;-86
2022/07/01 19:15:58;;;;;;;0.80;0.75;;;;;;;;;;6007986;29;20064;-85
2022/07/01 19:19:00;;;;;;;1.98;0.68;;;;;;;;;;6008601;29;20140;-87
2022/07/01 19:22:02;;;;;;;0.73;0.70;;;;;;;;;;6025571;29;20113;-89
2022/07/01 19:25:04;;;;;;;3.03;0.82;;;;;;;;;;6012228;29;20534;-88
2022/07/01 19:28:07;;;;;;;0.70;0.70;;;;;;;;;;6023314;29;20064;-87
2022/07/01 19:31:08;;;;;;;1.33;0.85;;;;;;;;;;6024842;29;20054;-87
2022/07/01 19:34:10;;;;;;;1.30;0.70;;;;;;;;;;6008828;29;20056;-87
2022/07/01 19:37:13;;;;;;;1.55;0.68;;;;;;;;;;6026231;29;20052;-87
2022/07/01 19:40:15;;;;;;;2.63;1.00;;;;;;;;;;6020971;29;20048;-90
2022/07/01 19:43:17;;;;;;;2.10;1.30;;;;;;;;;;6010775;29;20056;-86
2022/07/01 19:46:19;;;;;;;2.17;1.02;;;;;;;;;;6034942;29;20045;-88
2022/07/01 19:49:28;;;;;;;1.60;1.00;;;;;;;;;;6030487;29;20060;-90
2022/07/01 19:52:29;;;;;;;1.25;1.00;;;;;;;;;;6015715;29;20061;-88
2022/07/01 19:55:31;;;;;;;4.20;1.50;;;;;;;;;;6031350;29;20045;-90
2022/07/01 19:58:34;;;;;;;2.00;1.80;;;;;;;;;;6032298;29;20051;-88
2022/07/01 20:01:36;;;;;;;1.70;1.23;;;;;;;;;;6017008;29;20056;-87
2022/07/01 20:04:38;;;;;;;1.58;1.30;;;;;;;;;;6032127;29;20091;-88
2022/07/01 20:07:41;;;;;;;1.20;1.10;;;;;;;;;;6022897;29;20064;-89
2022/07/01 20:10:45;;;;;;;1.23;1.13;;;;;;;;;;6017095;29;20581;-90
2022/07/01 20:13:48;;;;;;;1.50;1.23;;;;;;;;;;6024398;29;20148;-89
2022/07/01 20:16:51;;;;;;;2.17;1.10;;;;;;;;;;6046023;29;20051;-87
2022/07/01 20:19:56;;;;;;;1.38;0.93;;;;;;;;;;6024170;29;20052;-87
2022/07/01 20:22:58;;;;;;;1.48;1.00;;;;;;;;;;6030583;29;20068;-89
2022/07/01 20:26:00;;;;;;;1.13;1.03;;;;;;;;;;6031053;29;20048;-87
2022/07/01 20:29:02;;;;;;;1.48;1.00;;;;;;;;;;6008921;29;20052;-89
2022/07/01 20:32:04;;;;;;;3.67;1.23;;;;;;;;;;6024111;29;20346;-89
2022/07/01 20:35:07;;;;;;;1.40;1.00;;;;;;;;;;6035252;29;20064;-87
2022/07/01 20:38:09;;;;;;;1.85;1.20;;;;;;;;;;6025110;29;22239;-89
2022/07/01 20:41:10;;;;;;;1.58;0.90;;;;;;;;;;6015954;29;20050;-92
2022/07/01 20:44:12;;;;;;;1.90;1.00;;;;;;;;;;6026285;29;20053;-88
2022/07/01 20:47:19;;;;;;;1.85;1.20;;;;;;;;;;6012228;29;20041;-90
2022/07/01 20:50:29;;;;;;;3.53;1.10;;;;;;;;;;6012711;29;20057;-88
2022/07/01 20:53:31;;;;;;;1.70;1.10;;;;;;;;;;6008997;29;20048;-92
2022/07/01 20:56:33;;;;;;;1.27;1.10;;;;;;;;;;6016278;29;20071;-91
2022/07/01 20:59:39;;;;;;;1.20;1.10;;;;;;;;;;6004456;29;20149;-89
2022/07/01 21:02:41;;;;;;;2.85;2.03;;;;;;;;;;6012723;29;20395;-89
2022/07/01 21:05:49;;;;;;;4.40;2.65;;;;;;;;;;6017511;29;20056;-88
2022/07/01 21:08:51;;;;;;;2.90;2.20;;;;;;;;;;6016937;29;20056;-88
2022/07/01 21:11:52;;;;;;;3.40;1.75;;;;;;;;;;5995217;29;20143;-86
2022/07/01 21:14:54;;;;;;;2.22;2.03;;;;;;;;;;6014937;29;20528;-84
2022/07/01 21:17:56;;;;;;;1.38;1.27;;;;;;;;;;6011604;29;20120;-85
2022/07/01 21:20:57;;;;;;;2.58;1.30;;;;;;;;;;6017557;29;20052;-86
2022/07/01 21:23:59;;;;;;;1.30;1.02;;;;;;;;;;6017388;29;20075;-87
2022/07/01 21:27:01;;;;;;;2.75;1.20;;;;;;;;;;6014352;29;20053;-87
2022/07/01 21:30:04;;;;;;;1.52;1.30;;;;;;;;;;6004276;29;20045;-87
2022/07/01 21:33:07;;;;;;;2.50;1.70;;;;;;;;;;6004674;29;20053;-87
2022/07/01 21:36:09;;;;;;;2.30;1.40;;;;;;;;;;6004965;29;20077;-86
2022/07/01 21:39:11;;;;;;;1.58;1.33;;;;;;;;;;6021148;29;20140;-85
2022/07/01 21:42:12;;;;;;;1.95;1.60;;;;;;;;;;6023025;29;20060;-88
2022/07/01 21:45:14;;;;;;;2.15;1.23;;;;;;;;;;6001845;29;20076;-86
2022/07/01 21:48:23;;;;;;;1.60;1.50;;;;;;;;;;6014927;29;20064;-88
2022/07/01 21:51:25;;;;;;;2.85;1.40;;;;;;;;;;6020539;29;20125;-87
2022/07/01 21:54:31;;;;;;;1.88;1.20;;;;;;;;;;6018612;29;20082;-90
2022/07/01 21:57:35;;;;;;;1.52;1.13;;;;;;;;;;6002759;29;20049;-86
2022/07/01 22:00:37;;;;;;;1.63;1.38;;;;;;;;;;6001030;29;20112;-86
2022/07/01 22:03:40;;;;;;;4.40;1.55;;;;;;;;;;6017870;29;20192;-87
2022/07/01 22:06:54;;;;;;;;;;;;;;;;;;6004134;29;20275;-87
2022/07/01 22:09:56;;;;;;;3.17;1.55;;;;;;;;;;6017122;29;19928;-87
2022/07/01 22:12:58;;;;;;;2.17;1.33;;;;;;;;;;5999795;29;20056;-88
2022/07/01 22:15:59;;;;;;;1.85;1.52;;;;;;;;;;6018132;29;20056;-88
2022/07/01 22:19:04;;;;;;;1.65;1.42;;;;;;;;;;6006607;29;20127;-85
2022/07/01 22:22:06;;;;;;;3.58;1.90;;;;;;;;;;6008412;29;20067;-88
2022/07/01 22:25:08;;;;;;;3.63;1.33;;;;;;;;;;6003718;29;20201;-87
2022/07/01 22:28:12;;;;;;;2.45;1.30;;;;;;;;;;6017721;29;20736;-86
2022/07/01 22:31:16;;;;;;;5.05;1.70;;;;;;;;;;6004626;29;20089;-87
2022/07/01 22:34:18;;;;;;;2.03;1.40;;;;;;;;;;6015829;29;20218;-87
2022/07/01 22:37:22;;;;;;;1.60;1.50;;;;;;;;;;6025113;29;20056;-86
2022/07/01 22:40:25;;;;;;;3.08;1.55;;;;;;;;;;6014931;29;20087;-86
2022/07/01 22:43:28;;;;;;;1.35;1.20;;;;;;;;;;6036893;29;20045;-86
2022/07/01 22:46:45;;;;;;;1.85;1.42;;;;;;;;;;6009470;29;20532;-87
2022/07/01 22:50:04;;;;;;;2.65;2.10;;;;;;;;;;6000483;29;20759;-86
2022/07/01 22:53:31;;;;;;;4.70;1.50;;;;;;;;;;6016227;29;20060;-87
2022/07/01 22:56:36;;;;;;;1.63;1.48;;;;;;;;;;5995873;29;20049;-87
2022/07/01 22:59:37;;;;;;;1.33;1.23;;;;;;;;;;6008291;29;20145;-85
2022/07/01 23:02:41;;;;;;;3.35;1.45;;;;;;;;;;6012231;29;20057;-87
2022/07/01 23:05:49;;;;;;;1.67;1.20;;;;;;;;;;6002580;29;20041;-88
2022/07/01 23:08:55;;;;;;;4.88;1.60;;;;;;;;;;6033321;29;20063;-88
2022/07/01 23:12:03;;;;;;;1.48;1.25;;;;;;;;;;6016145;29;20048;-87
2022/07/01 23:18:28;;;;;;;2.25;2.05;;;;;;;;;;6027268;29;20072;-87
2022/07/01 23:21:30;;;;;;;3.63;1.55;;;;;;;;;;6022573;29;20056;-88
2022/07/01 23:24:33;;;;;;;1.50;1.40;;;;;;;;;;6007235;29;20068;-86
2022/07/01 23:27:36;;;;;;;1.50;1.40;;;;;;;;;;5999432;29;20134;-86
2022/07/01 23:30:41;;;;;;;1.65;1.50;;;;;;;;;;6016940;29;20149;-87
2022/07/01 23:33:43;;;;;;;1.60;1.50;;;;;;;;;;6011362;29;20524;-86
2022/07/01 23:36:46;;;;;;;2.63;1.60;;;;;;;;;;6003540;29;20057;-86
2022/07/01 23:39:47;;;;;;;1.70;1.60;;;;;;;;;;6037166;29;20051;-87
2022/07/01 23:42:49;;;;;;;1.27;1.17;;;;;;;;;;6007225;29;21413;-89
2022/07/01 23:45:51;;;;;;;1.60;1.40;;;;;;;;;;6011779;29;20057;-86
2022/07/01 23:48:52;;;;;;;2.13;1.60;;;;;;;;;;6001199;29;20052;-85
2022/07/01 23:51:55;;;;;;;1.83;1.63;;;;;;;;;;6008034;29;20062;-87
2022/07/01 23:54:56;;;;;;;1.60;1.40;;;;;;;;;;6002627;29;20826;-88
2022/07/01 23:57:58;;;;;;;2.72;1.60;;;;;;;;;;5996418;29;20143;-87
